sensor_id;sensor_type;location;lat;lon;timestamp;P1;P2;P0
56069;PMS5003;41944;52.078;-0.058;2023-04-24T00:00:45;20;20;
56069;PMS5003;41944;52.078;-0.058;2023-04-24T00:03:12;19;19;
56069;PMS5003;41944;52.078;-0.058;2023-04-24T00:05:40;25;21;
56069;PMS5003;41944;52.078;-0.058;2023-04-24T00:08:07;22;21;
56069;PMS5003;41944;52.078;-0.058;2023-04-24T00:10:35;23;16;
56069;PMS5003;41944;52.078;-0.058;2023-04-24T00:13:02;22;20;
56069;PMS5003;41944;52.078;-0.058;2023-04-24T00:15:30;24;21;
56069;PMS5003;41944;52.078;-0.058;2023-04-24T00:17:57;24;22;
56069;PMS5003;41944;52.078;-0.058;2023-04-24T00:20:24;25;21;
56069;PMS5003;41944;52.078;-0.058;2023-04-24T00:22:51;23;21;
56069;PMS5003;41944;52.078;-0.058;2023-04-24T00:25:18;19;18;
56069;PMS5003;41944;52.078;-0.058;2023-04-24T00:27:45;25;21;
56069;PMS5003;41944;52.078;-0.058;2023-04-24T00:30:12;22;22;
56069;PMS5003;41944;52.078;-0.058;2023-04-24T00:32:39;21;20;
56069;PMS5003;41944;52.078;-0.058;2023-04-24T00:35:06;24;22;
56069;PMS5003;41944;52.078;-0.058;2023-04-24T00:37:34;23;21;
56069;PMS5003;41944;52.078;-0.058;2023-04-24T00:40:01;19;17;
56069;PMS5003;41944;52.078;-0.058;2023-04-24T00:42:29;18;18;
56069;PMS5003;41944;52.078;-0.058;2023-04-24T00:44:56;20;18;
56069;PMS5003;41944;52.078;-0.058;2023-04-24T00:47:24;26;21;
56069;PMS5003;41944;52.078;-0.058;2023-04-24T00:49:52;23;19;
56069;PMS5003;41944;52.078;-0.058;2023-04-24T00:52:19;24;23;
56069;PMS5003;41944;52.078;-0.058;2023-04-24T00:54:46;21;21;
56069;PMS5003;41944;52.078;-0.058;2023-04-24T00:57:13;22;22;
56069;PMS5003;41944;52.078;-0.058;2023-04-24T00:59:41;25;25;
56069;PMS5003;41944;52.078;-0.058;2023-04-24T01:02:09;27;25;
56069;PMS5003;41944;52.078;-0.058;2023-04-24T01:04:37;25;22;
56069;PMS5003;41944;52.078;-0.058;2023-04-24T01:07:04;22;20;
56069;PMS5003;41944;52.078;-0.058;2023-04-24T01:09:31;22;21;
56069;PMS5003;41944;52.078;-0.058;2023-04-24T01:11:58;21;20;
56069;PMS5003;41944;52.078;-0.058;2023-04-24T01:14:26;18;17;
56069;PMS5003;41944;52.078;-0.058;2023-04-24T01:16:53;21;20;
56069;PMS5003;41944;52.078;-0.058;2023-04-24T01:19:20;20;19;
56069;PMS5003;41944;52.078;-0.058;2023-04-24T01:21:47;26;23;
56069;PMS5003;41944;52.078;-0.058;2023-04-24T01:24:17;25;21;
56069;PMS5003;41944;52.078;-0.058;2023-04-24T01:26:45;26;22;
56069;PMS5003;41944;52.078;-0.058;2023-04-24T01:29:13;22;19;
56069;PMS5003;41944;52.078;-0.058;2023-04-24T01:31:40;22;21;
56069;PMS5003;41944;52.078;-0.058;2023-04-24T01:34:08;28;23;
56069;PMS5003;41944;52.078;-0.058;2023-04-24T01:36:35;24;22;
56069;PMS5003;41944;52.078;-0.058;2023-04-24T01:39:02;24;21;
56069;PMS5003;41944;52.078;-0.058;2023-04-24T01:41:29;24;20;
56069;PMS5003;41944;52.078;-0.058;2023-04-24T01:43:57;21;19;
56069;PMS5003;41944;52.078;-0.058;2023-04-24T01:46:24;20;17;
56069;PMS5003;41944;52.078;-0.058;2023-04-24T01:48:52;18;17;
56069;PMS5003;41944;52.078;-0.058;2023-04-24T01:51:20;14;14;
56069;PMS5003;41944;52.078;-0.058;2023-04-24T01:53:47;17;15;
56069;PMS5003;41944;52.078;-0.058;2023-04-24T01:56:14;17;13;
56069;PMS5003;41944;52.078;-0.058;2023-04-24T01:58:42;11;11;
56069;PMS5003;41944;52.078;-0.058;2023-04-24T02:01:10;13;12;
56069;PMS5003;41944;52.078;-0.058;2023-04-24T02:03:41;14;13;
56069;PMS5003;41944;52.078;-0.058;2023-04-24T02:06:08;13;11;
56069;PMS5003;41944;52.078;-0.058;2023-04-24T02:08:35;14;10;
56069;PMS5003;41944;52.078;-0.058;2023-04-24T02:11:03;10;9;
56069;PMS5003;41944;52.078;-0.058;2023-04-24T02:13:30;13;10;
56069;PMS5003;41944;52.078;-0.058;2023-04-24T02:15:58;13;11;
56069;PMS5003;41944;52.078;-0.058;2023-04-24T02:18:24;7;7;
56069;PMS5003;41944;52.078;-0.058;2023-04-24T02:20:51;12;10;
56069;PMS5003;41944;52.078;-0.058;2023-04-24T02:23:19;8;7;
56069;PMS5003;41944;52.078;-0.058;2023-04-24T02:25:46;9;9;
56069;PMS5003;41944;52.078;-0.058;2023-04-24T02:28:13;9;9;
56069;PMS5003;41944;52.078;-0.058;2023-04-24T02:30:40;13;10;
56069;PMS5003;41944;52.078;-0.058;2023-04-24T02:33:07;10;10;
56069;PMS5003;41944;52.078;-0.058;2023-04-24T02:35:34;14;10;
56069;PMS5003;41944;52.078;-0.058;2023-04-24T02:38:01;11;11;
56069;PMS5003;41944;52.078;-0.058;2023-04-24T02:40:28;12;11;
56069;PMS5003;41944;52.078;-0.058;2023-04-24T02:42:55;12;8;
56069;PMS5003;41944;52.078;-0.058;2023-04-24T02:45:22;11;9;
56069;PMS5003;41944;52.078;-0.058;2023-04-24T02:47:49;14;11;
56069;PMS5003;41944;52.078;-0.058;2023-04-24T02:50:16;9;9;
56069;PMS5003;41944;52.078;-0.058;2023-04-24T02:52:43;8;8;
56069;PMS5003;41944;52.078;-0.058;2023-04-24T02:55:10;12;9;
56069;PMS5003;41944;52.078;-0.058;2023-04-24T02:57:37;10;10;
56069;PMS5003;41944;52.078;-0.058;2023-04-24T03:00:05;10;9;
56069;PMS5003;41944;52.078;-0.058;2023-04-24T03:02:33;9;9;
56069;PMS5003;41944;52.078;-0.058;2023-04-24T03:05:00;13;10;
56069;PMS5003;41944;52.078;-0.058;2023-04-24T03:07:27;15;9;
56069;PMS5003;41944;52.078;-0.058;2023-04-24T03:09:54;13;10;
56069;PMS5003;41944;52.078;-0.058;2023-04-24T03:12:20;11;11;
56069;PMS5003;41944;52.078;-0.058;2023-04-24T03:14:47;13;10;
56069;PMS5003;41944;52.078;-0.058;2023-04-24T03:17:14;8;7;
56069;PMS5003;41944;52.078;-0.058;2023-04-24T03:19:41;15;11;
56069;PMS5003;41944;52.078;-0.058;2023-04-24T03:22:08;12;10;
56069;PMS5003;41944;52.078;-0.058;2023-04-24T03:24:35;12;11;
56069;PMS5003;41944;52.078;-0.058;2023-04-24T03:27:02;9;9;
56069;PMS5003;41944;52.078;-0.058;2023-04-24T03:29:29;8;8;
56069;PMS5003;41944;52.078;-0.058;2023-04-24T03:31:56;12;9;
56069;PMS5003;41944;52.078;-0.058;2023-04-24T03:34:23;14;11;
56069;PMS5003;41944;52.078;-0.058;2023-04-24T03:36:50;14;9;
56069;PMS5003;41944;52.078;-0.058;2023-04-24T03:39:17;9;9;
56069;PMS5003;41944;52.078;-0.058;2023-04-24T03:41:44;16;11;
56069;PMS5003;41944;52.078;-0.058;2023-04-24T03:44:10;10;7;
56069;PMS5003;41944;52.078;-0.058;2023-04-24T03:46:37;10;7;
56069;PMS5003;41944;52.078;-0.058;2023-04-24T03:49:04;9;8;
56069;PMS5003;41944;52.078;-0.058;2023-04-24T03:51:31;10;8;
56069;PMS5003;41944;52.078;-0.058;2023-04-24T03:53:58;12;10;
56069;PMS5003;41944;52.078;-0.058;2023-04-24T03:56:25;10;9;
56069;PMS5003;41944;52.078;-0.058;2023-04-24T03:58:52;14;7;
56069;PMS5003;41944;52.078;-0.058;2023-04-24T04:01:18;9;7;
56069;PMS5003;41944;52.078;-0.058;2023-04-24T04:03:46;4;4;
56069;PMS5003;41944;52.078;-0.058;2023-04-24T04:06:12;6;6;
56069;PMS5003;41944;52.078;-0.058;2023-04-24T04:08:39;4;4;
56069;PMS5003;41944;52.078;-0.058;2023-04-24T04:11:06;8;7;
56069;PMS5003;41944;52.078;-0.058;2023-04-24T04:13:33;5;5;
56069;PMS5003;41944;52.078;-0.058;2023-04-24T04:16:00;7;7;
56069;PMS5003;41944;52.078;-0.058;2023-04-24T04:18:27;5;5;
56069;PMS5003;41944;52.078;-0.058;2023-04-24T04:20:54;26;24;
56069;PMS5003;41944;52.078;-0.058;2023-04-24T04:23:21;8;7;
56069;PMS5003;41944;52.078;-0.058;2023-04-24T04:25:48;11;5;
56069;PMS5003;41944;52.078;-0.058;2023-04-24T04:28:15;8;6;
56069;PMS5003;41944;52.078;-0.058;2023-04-24T04:30:42;4;4;
56069;PMS5003;41944;52.078;-0.058;2023-04-24T04:33:09;9;5;
56069;PMS5003;41944;52.078;-0.058;2023-04-24T04:35:36;5;5;
56069;PMS5003;41944;52.078;-0.058;2023-04-24T04:38:03;9;8;
56069;PMS5003;41944;52.078;-0.058;2023-04-24T04:40:30;7;3;
56069;PMS5003;41944;52.078;-0.058;2023-04-24T04:42:57;8;5;
56069;PMS5003;41944;52.078;-0.058;2023-04-24T04:45:24;6;5;
56069;PMS5003;41944;52.078;-0.058;2023-04-24T04:47:51;7;4;
56069;PMS5003;41944;52.078;-0.058;2023-04-24T04:50:18;6;6;
56069;PMS5003;41944;52.078;-0.058;2023-04-24T04:52:45;8;5;
56069;PMS5003;41944;52.078;-0.058;2023-04-24T04:55:12;7;5;
56069;PMS5003;41944;52.078;-0.058;2023-04-24T04:57:39;5;3;
56069;PMS5003;41944;52.078;-0.058;2023-04-24T05:00:06;3;3;
56069;PMS5003;41944;52.078;-0.058;2023-04-24T05:02:34;9;6;
56069;PMS5003;41944;52.078;-0.058;2023-04-24T05:05:01;9;6;
56069;PMS5003;41944;52.078;-0.058;2023-04-24T05:07:28;6;6;
56069;PMS5003;41944;52.078;-0.058;2023-04-24T05:09:55;6;6;
56069;PMS5003;41944;52.078;-0.058;2023-04-24T05:12:22;6;5;
56069;PMS5003;41944;52.078;-0.058;2023-04-24T05:14:49;3;3;
56069;PMS5003;41944;52.078;-0.058;2023-04-24T05:17:16;3;3;
56069;PMS5003;41944;52.078;-0.058;2023-04-24T05:19:43;6;6;
56069;PMS5003;41944;52.078;-0.058;2023-04-24T05:22:10;5;3;
56069;PMS5003;41944;52.078;-0.058;2023-04-24T05:24:37;4;4;
56069;PMS5003;41944;52.078;-0.058;2023-04-24T05:27:04;9;4;
56069;PMS5003;41944;52.078;-0.058;2023-04-24T05:29:32;7;5;
56069;PMS5003;41944;52.078;-0.058;2023-04-24T05:31:59;7;4;
56069;PMS5003;41944;52.078;-0.058;2023-04-24T05:34:27;6;6;
56069;PMS5003;41944;52.078;-0.058;2023-04-24T05:36:54;6;3;
56069;PMS5003;41944;52.078;-0.058;2023-04-24T05:39:21;11;6;
56069;PMS5003;41944;52.078;-0.058;2023-04-24T05:41:48;7;4;
56069;PMS5003;41944;52.078;-0.058;2023-04-24T05:44:15;5;5;
56069;PMS5003;41944;52.078;-0.058;2023-04-24T05:46:42;4;2;
56069;PMS5003;41944;52.078;-0.058;2023-04-24T05:49:09;7;4;
56069;PMS5003;41944;52.078;-0.058;2023-04-24T05:51:37;7;5;
56069;PMS5003;41944;52.078;-0.058;2023-04-24T05:54:04;5;4;
56069;PMS5003;41944;52.078;-0.058;2023-04-24T05:56:31;6;5;
56069;PMS5003;41944;52.078;-0.058;2023-04-24T05:58:58;5;4;
56069;PMS5003;41944;52.078;-0.058;2023-04-24T06:01:25;5;3;
56069;PMS5003;41944;52.078;-0.058;2023-04-24T06:03:52;4;4;
56069;PMS5003;41944;52.078;-0.058;2023-04-24T06:06:19;7;6;
56069;PMS5003;41944;52.078;-0.058;2023-04-24T06:08:45;7;4;
56069;PMS5003;41944;52.078;-0.058;2023-04-24T06:11:12;5;5;
56069;PMS5003;41944;52.078;-0.058;2023-04-24T06:13:39;6;5;
56069;PMS5003;41944;52.078;-0.058;2023-04-24T06:16:06;6;5;
56069;PMS5003;41944;52.078;-0.058;2023-04-24T06:18:33;6;5;
56069;PMS5003;41944;52.078;-0.058;2023-04-24T06:21:00;8;7;
56069;PMS5003;41944;52.078;-0.058;2023-04-24T06:23:28;5;5;
56069;PMS5003;41944;52.078;-0.058;2023-04-24T06:25:55;5;4;
56069;PMS5003;41944;52.078;-0.058;2023-04-24T06:28:21;7;5;
56069;PMS5003;41944;52.078;-0.058;2023-04-24T06:30:48;3;2;
56069;PMS5003;41944;52.078;-0.058;2023-04-24T06:33:15;4;3;
56069;PMS5003;41944;52.078;-0.058;2023-04-24T06:35:42;3;3;
56069;PMS5003;41944;52.078;-0.058;2023-04-24T06:38:09;4;3;
56069;PMS5003;41944;52.078;-0.058;2023-04-24T06:40:36;5;4;
56069;PMS5003;41944;52.078;-0.058;2023-04-24T06:43:04;4;4;
56069;PMS5003;41944;52.078;-0.058;2023-04-24T06:45:31;6;3;
56069;PMS5003;41944;52.078;-0.058;2023-04-24T06:47:58;5;5;
56069;PMS5003;41944;52.078;-0.058;2023-04-24T06:50:25;7;4;
56069;PMS5003;41944;52.078;-0.058;2023-04-24T06:52:51;46;43;
56069;PMS5003;41944;52.078;-0.058;2023-04-24T06:55:18;2;2;
56069;PMS5003;41944;52.078;-0.058;2023-04-24T06:57:45;4;4;
56069;PMS5003;41944;52.078;-0.058;2023-04-24T07:00:12;6;6;
56069;PMS5003;41944;52.078;-0.058;2023-04-24T07:02:39;5;4;
56069;PMS5003;41944;52.078;-0.058;2023-04-24T07:05:06;7;5;
56069;PMS5003;41944;52.078;-0.058;2023-04-24T07:07:33;4;4;
56069;PMS5003;41944;52.078;-0.058;2023-04-24T07:10:00;5;3;
56069;PMS5003;41944;52.078;-0.058;2023-04-24T07:12:27;7;3;
56069;PMS5003;41944;52.078;-0.058;2023-04-24T07:14:54;4;3;
56069;PMS5003;41944;52.078;-0.058;2023-04-24T07:17:21;5;4;
56069;PMS5003;41944;52.078;-0.058;2023-04-24T07:19:48;4;4;
56069;PMS5003;41944;52.078;-0.058;2023-04-24T07:22:15;6;3;
56069;PMS5003;41944;52.078;-0.058;2023-04-24T07:24:42;6;5;
56069;PMS5003;41944;52.078;-0.058;2023-04-24T07:27:09;3;3;
56069;PMS5003;41944;52.078;-0.058;2023-04-24T07:29:35;3;3;
56069;PMS5003;41944;52.078;-0.058;2023-04-24T07:32:02;5;2;
56069;PMS5003;41944;52.078;-0.058;2023-04-24T07:34:29;3;3;
56069;PMS5003;41944;52.078;-0.058;2023-04-24T07:36:56;3;3;
56069;PMS5003;41944;52.078;-0.058;2023-04-24T07:39:23;5;3;
56069;PMS5003;41944;52.078;-0.058;2023-04-24T07:41:50;3;3;
56069;PMS5003;41944;52.078;-0.058;2023-04-24T07:44:17;2;2;
56069;PMS5003;41944;52.078;-0.058;2023-04-24T07:46:44;4;2;
56069;PMS5003;41944;52.078;-0.058;2023-04-24T07:49:11;6;3;
56069;PMS5003;41944;52.078;-0.058;2023-04-24T07:51:38;4;2;
56069;PMS5003;41944;52.078;-0.058;2023-04-24T07:54:05;4;2;
56069;PMS5003;41944;52.078;-0.058;2023-04-24T07:56:31;3;3;
56069;PMS5003;41944;52.078;-0.058;2023-04-24T07:58:59;2;2;
56069;PMS5003;41944;52.078;-0.058;2023-04-24T08:01:26;5;2;
56069;PMS5003;41944;52.078;-0.058;2023-04-24T08:03:53;3;2;
56069;PMS5003;41944;52.078;-0.058;2023-04-24T08:06:20;4;2;
56069;PMS5003;41944;52.078;-0.058;2023-04-24T08:08:47;3;2;
56069;PMS5003;41944;52.078;-0.058;2023-04-24T08:11:14;1;1;
56069;PMS5003;41944;52.078;-0.058;2023-04-24T08:13:41;3;1;
56069;PMS5003;41944;52.078;-0.058;2023-04-24T08:16:08;1;1;
56069;PMS5003;41944;52.078;-0.058;2023-04-24T08:18:34;2;2;
56069;PMS5003;41944;52.078;-0.058;2023-04-24T08:21:01;1;1;
56069;PMS5003;41944;52.078;-0.058;2023-04-24T08:23:28;1;1;
56069;PMS5003;41944;52.078;-0.058;2023-04-24T08:25:55;2;2;
56069;PMS5003;41944;52.078;-0.058;2023-04-24T08:28:22;5;3;
56069;PMS5003;41944;52.078;-0.058;2023-04-24T08:30:49;3;3;
56069;PMS5003;41944;52.078;-0.058;2023-04-24T08:33:16;4;4;
56069;PMS5003;41944;52.078;-0.058;2023-04-24T08:35:43;18;17;
56069;PMS5003;41944;52.078;-0.058;2023-04-24T08:38:10;8;4;
56069;PMS5003;41944;52.078;-0.058;2023-04-24T08:40:37;18;18;
56069;PMS5003;41944;52.078;-0.058;2023-04-24T08:43:04;1;1;
56069;PMS5003;41944;52.078;-0.058;2023-04-24T08:45:32;2;1;
56069;PMS5003;41944;52.078;-0.058;2023-04-24T08:47:59;4;4;
56069;PMS5003;41944;52.078;-0.058;2023-04-24T08:50:26;2;2;
56069;PMS5003;41944;52.078;-0.058;2023-04-24T08:52:55;4;3;
56069;PMS5003;41944;52.078;-0.058;2023-04-24T08:55:22;7;2;
56069;PMS5003;41944;52.078;-0.058;2023-04-24T08:57:52;3;1;
56069;PMS5003;41944;52.078;-0.058;2023-04-24T09:00:20;3;3;
56069;PMS5003;41944;52.078;-0.058;2023-04-24T09:02:48;4;4;
56069;PMS5003;41944;52.078;-0.058;2023-04-24T09:05:16;8;8;
56069;PMS5003;41944;52.078;-0.058;2023-04-24T09:07:44;8;6;
56069;PMS5003;41944;52.078;-0.058;2023-04-24T09:10:15;2;2;
56069;PMS5003;41944;52.078;-0.058;2023-04-24T09:12:42;4;4;
56069;PMS5003;41944;52.078;-0.058;2023-04-24T09:15:11;6;6;
56069;PMS5003;41944;52.078;-0.058;2023-04-24T09:17:38;8;4;
56069;PMS5003;41944;52.078;-0.058;2023-04-24T09:20:07;6;2;
56069;PMS5003;41944;52.078;-0.058;2023-04-24T09:22:34;5;5;
56069;PMS5003;41944;52.078;-0.058;2023-04-24T09:25:02;3;3;
56069;PMS5003;41944;52.078;-0.058;2023-04-24T09:27:30;2;1;
56069;PMS5003;41944;52.078;-0.058;2023-04-24T09:29:58;5;3;
56069;PMS5003;41944;52.078;-0.058;2023-04-24T09:32:26;2;2;
56069;PMS5003;41944;52.078;-0.058;2023-04-24T09:35:11;4;3;
56069;PMS5003;41944;52.078;-0.058;2023-04-24T09:37:40;5;3;
56069;PMS5003;41944;52.078;-0.058;2023-04-24T09:40:10;4;4;
56069;PMS5003;41944;52.078;-0.058;2023-04-24T09:42:39;5;5;
56069;PMS5003;41944;52.078;-0.058;2023-04-24T09:45:09;6;3;
56069;PMS5003;41944;52.078;-0.058;2023-04-24T09:47:36;6;3;
56069;PMS5003;41944;52.078;-0.058;2023-04-24T09:50:12;4;4;
56069;PMS5003;41944;52.078;-0.058;2023-04-24T09:52:42;1;1;
56069;PMS5003;41944;52.078;-0.058;2023-04-24T09:55:12;6;5;
56069;PMS5003;41944;52.078;-0.058;2023-04-24T09:57:49;5;5;
56069;PMS5003;41944;52.078;-0.058;2023-04-24T10:00:18;5;4;
56069;PMS5003;41944;52.078;-0.058;2023-04-24T10:02:49;5;3;
56069;PMS5003;41944;52.078;-0.058;2023-04-24T10:05:17;3;2;
56069;PMS5003;41944;52.078;-0.058;2023-04-24T10:07:44;5;4;
56069;PMS5003;41944;52.078;-0.058;2023-04-24T10:10:11;3;3;
56069;PMS5003;41944;52.078;-0.058;2023-04-24T10:12:39;4;3;
56069;PMS5003;41944;52.078;-0.058;2023-04-24T10:15:07;2;2;
56069;PMS5003;41944;52.078;-0.058;2023-04-24T10:17:37;2;2;
56069;PMS5003;41944;52.078;-0.058;2023-04-24T10:20:05;5;2;
56069;PMS5003;41944;52.078;-0.058;2023-04-24T10:22:34;4;3;
56069;PMS5003;41944;52.078;-0.058;2023-04-24T10:25:03;6;3;
56069;PMS5003;41944;52.078;-0.058;2023-04-24T10:27:32;3;3;
56069;PMS5003;41944;52.078;-0.058;2023-04-24T10:30:01;2;2;
56069;PMS5003;41944;52.078;-0.058;2023-04-24T10:32:28;6;5;
56069;PMS5003;41944;52.078;-0.058;2023-04-24T10:34:55;4;4;
56069;PMS5003;41944;52.078;-0.058;2023-04-24T10:37:22;10;9;
56069;PMS5003;41944;52.078;-0.058;2023-04-24T10:39:51;3;3;
56069;PMS5003;41944;52.078;-0.058;2023-04-24T10:42:18;6;3;
56069;PMS5003;41944;52.078;-0.058;2023-04-24T10:44:46;6;3;
56069;PMS5003;41944;52.078;-0.058;2023-04-24T10:47:14;4;4;
56069;PMS5003;41944;52.078;-0.058;2023-04-24T10:49:41;1;1;
56069;PMS5003;41944;52.078;-0.058;2023-04-24T10:52:09;4;2;
56069;PMS5003;41944;52.078;-0.058;2023-04-24T10:54:36;2;2;
56069;PMS5003;41944;52.078;-0.058;2023-04-24T10:58:00;1;0;
56069;PMS5003;41944;52.078;-0.058;2023-04-24T11:00:28;3;2;
56069;PMS5003;41944;52.078;-0.058;2023-04-24T11:02:56;4;2;
56069;PMS5003;41944;52.078;-0.058;2023-04-24T11:08:21;2;2;
56069;PMS5003;41944;52.078;-0.058;2023-04-24T11:10:54;2;2;
56069;PMS5003;41944;52.078;-0.058;2023-04-24T11:13:24;1;1;
56069;PMS5003;41944;52.078;-0.058;2023-04-24T11:16:26;1;1;
56069;PMS5003;41944;52.078;-0.058;2023-04-24T11:19:00;3;3;
56069;PMS5003;41944;52.078;-0.058;2023-04-24T11:21:31;2;2;
56069;PMS5003;41944;52.078;-0.058;2023-04-24T11:23:58;2;2;
56069;PMS5003;41944;52.078;-0.058;2023-04-24T11:26:50;3;3;
56069;PMS5003;41944;52.078;-0.058;2023-04-24T11:29:19;1;1;
56069;PMS5003;41944;52.078;-0.058;2023-04-24T11:31:47;1;1;
56069;PMS5003;41944;52.078;-0.058;2023-04-24T11:34:14;2;2;
56069;PMS5003;41944;52.078;-0.058;2023-04-24T11:36:42;5;3;
56069;PMS5003;41944;52.078;-0.058;2023-04-24T11:39:10;3;3;
56069;PMS5003;41944;52.078;-0.058;2023-04-24T11:41:38;3;3;
56069;PMS5003;41944;52.078;-0.058;2023-04-24T11:44:06;3;3;
56069;PMS5003;41944;52.078;-0.058;2023-04-24T11:46:35;4;4;
56069;PMS5003;41944;52.078;-0.058;2023-04-24T11:49:02;4;4;
56069;PMS5003;41944;52.078;-0.058;2023-04-24T11:51:28;4;4;
56069;PMS5003;41944;52.078;-0.058;2023-04-24T11:53:56;5;3;
56069;PMS5003;41944;52.078;-0.058;2023-04-24T11:56:23;3;3;
56069;PMS5003;41944;52.078;-0.058;2023-04-24T11:58:51;2;2;
56069;PMS5003;41944;52.078;-0.058;2023-04-24T12:01:19;6;4;
56069;PMS5003;41944;52.078;-0.058;2023-04-24T12:03:47;5;3;
56069;PMS5003;41944;52.078;-0.058;2023-04-24T12:06:14;3;3;
56069;PMS5003;41944;52.078;-0.058;2023-04-24T12:08:41;4;4;
56069;PMS5003;41944;52.078;-0.058;2023-04-24T12:11:08;7;5;
56069;PMS5003;41944;52.078;-0.058;2023-04-24T12:13:35;4;4;
56069;PMS5003;41944;52.078;-0.058;2023-04-24T12:16:03;4;4;
56069;PMS5003;41944;52.078;-0.058;2023-04-24T12:18:30;4;3;
56069;PMS5003;41944;52.078;-0.058;2023-04-24T12:21:14;5;3;
56069;PMS5003;41944;52.078;-0.058;2023-04-24T12:23:42;5;4;
56069;PMS5003;41944;52.078;-0.058;2023-04-24T12:26:09;9;4;
56069;PMS5003;41944;52.078;-0.058;2023-04-24T12:28:36;5;4;
56069;PMS5003;41944;52.078;-0.058;2023-04-24T12:31:05;8;5;
56069;PMS5003;41944;52.078;-0.058;2023-04-24T12:33:34;7;5;
56069;PMS5003;41944;52.078;-0.058;2023-04-24T12:36:02;5;4;
56069;PMS5003;41944;52.078;-0.058;2023-04-24T12:38:30;5;4;
56069;PMS5003;41944;52.078;-0.058;2023-04-24T12:41:01;6;5;
56069;PMS5003;41944;52.078;-0.058;2023-04-24T12:43:29;4;4;
56069;PMS5003;41944;52.078;-0.058;2023-04-24T12:45:57;4;3;
56069;PMS5003;41944;52.078;-0.058;2023-04-24T12:48:24;4;4;
56069;PMS5003;41944;52.078;-0.058;2023-04-24T12:50:51;6;4;
56069;PMS5003;41944;52.078;-0.058;2023-04-24T12:53:18;4;3;
56069;PMS5003;41944;52.078;-0.058;2023-04-24T12:55:45;5;3;
56069;PMS5003;41944;52.078;-0.058;2023-04-24T12:58:12;4;4;
56069;PMS5003;41944;52.078;-0.058;2023-04-24T13:00:39;6;4;
56069;PMS5003;41944;52.078;-0.058;2023-04-24T13:03:06;3;3;
56069;PMS5003;41944;52.078;-0.058;2023-04-24T13:05:33;4;4;
56069;PMS5003;41944;52.078;-0.058;2023-04-24T13:08:00;4;4;
56069;PMS5003;41944;52.078;-0.058;2023-04-24T13:10:27;6;5;
56069;PMS5003;41944;52.078;-0.058;2023-04-24T13:12:54;5;3;
56069;PMS5003;41944;52.078;-0.058;2023-04-24T13:15:21;3;3;
56069;PMS5003;41944;52.078;-0.058;2023-04-24T13:17:48;3;3;
56069;PMS5003;41944;52.078;-0.058;2023-04-24T13:20:16;9;6;
56069;PMS5003;41944;52.078;-0.058;2023-04-24T13:22:43;6;6;
56069;PMS5003;41944;52.078;-0.058;2023-04-24T13:25:10;7;5;
56069;PMS5003;41944;52.078;-0.058;2023-04-24T13:27:38;4;3;
56069;PMS5003;41944;52.078;-0.058;2023-04-24T13:30:06;4;3;
56069;PMS5003;41944;52.078;-0.058;2023-04-24T13:32:34;5;4;
56069;PMS5003;41944;52.078;-0.058;2023-04-24T13:35:02;8;5;
56069;PMS5003;41944;52.078;-0.058;2023-04-24T13:37:29;6;5;
56069;PMS5003;41944;52.078;-0.058;2023-04-24T13:39:56;4;4;
56069;PMS5003;41944;52.078;-0.058;2023-04-24T13:42:23;7;6;
56069;PMS5003;41944;52.078;-0.058;2023-04-24T13:44:50;10;6;
56069;PMS5003;41944;52.078;-0.058;2023-04-24T13:47:17;6;4;
56069;PMS5003;41944;52.078;-0.058;2023-04-24T13:49:44;8;5;
56069;PMS5003;41944;52.078;-0.058;2023-04-24T13:52:10;5;4;
56069;PMS5003;41944;52.078;-0.058;2023-04-24T13:54:38;7;5;
56069;PMS5003;41944;52.078;-0.058;2023-04-24T13:57:05;7;5;
56069;PMS5003;41944;52.078;-0.058;2023-04-24T13:59:32;9;5;
56069;PMS5003;41944;52.078;-0.058;2023-04-24T14:01:59;5;4;
56069;PMS5003;41944;52.078;-0.058;2023-04-24T14:04:26;6;6;
56069;PMS5003;41944;52.078;-0.058;2023-04-24T14:06:53;6;5;
56069;PMS5003;41944;52.078;-0.058;2023-04-24T14:09:20;6;6;
56069;PMS5003;41944;52.078;-0.058;2023-04-24T14:11:47;4;4;
56069;PMS5003;41944;52.078;-0.058;2023-04-24T14:14:13;5;4;
56069;PMS5003;41944;52.078;-0.058;2023-04-24T14:16:40;6;4;
56069;PMS5003;41944;52.078;-0.058;2023-04-24T14:19:07;4;4;
56069;PMS5003;41944;52.078;-0.058;2023-04-24T14:21:34;7;5;
56069;PMS5003;41944;52.078;-0.058;2023-04-24T14:24:01;6;6;
56069;PMS5003;41944;52.078;-0.058;2023-04-24T14:26:28;8;8;
56069;PMS5003;41944;52.078;-0.058;2023-04-24T14:28:55;7;5;
56069;PMS5003;41944;52.078;-0.058;2023-04-24T14:31:22;14;10;
56069;PMS5003;41944;52.078;-0.058;2023-04-24T14:33:49;7;6;
56069;PMS5003;41944;52.078;-0.058;2023-04-24T14:36:16;6;4;
56069;PMS5003;41944;52.078;-0.058;2023-04-24T14:38:43;6;6;
56069;PMS5003;41944;52.078;-0.058;2023-04-24T14:41:10;8;7;
56069;PMS5003;41944;52.078;-0.058;2023-04-24T14:43:37;7;7;
56069;PMS5003;41944;52.078;-0.058;2023-04-24T14:46:04;6;6;
56069;PMS5003;41944;52.078;-0.058;2023-04-24T14:48:31;7;7;
56069;PMS5003;41944;52.078;-0.058;2023-04-24T14:50:58;8;6;
56069;PMS5003;41944;52.078;-0.058;2023-04-24T14:53:25;11;6;
56069;PMS5003;41944;52.078;-0.058;2023-04-24T14:55:52;8;7;
56069;PMS5003;41944;52.078;-0.058;2023-04-24T14:58:20;6;6;
56069;PMS5003;41944;52.078;-0.058;2023-04-24T15:00:47;11;10;
56069;PMS5003;41944;52.078;-0.058;2023-04-24T15:03:14;10;8;
56069;PMS5003;41944;52.078;-0.058;2023-04-24T15:05:41;11;8;
56069;PMS5003;41944;52.078;-0.058;2023-04-24T15:08:07;6;6;
56069;PMS5003;41944;52.078;-0.058;2023-04-24T15:10:34;8;7;
56069;PMS5003;41944;52.078;-0.058;2023-04-24T15:13:02;10;9;
56069;PMS5003;41944;52.078;-0.058;2023-04-24T15:15:29;8;5;
56069;PMS5003;41944;52.078;-0.058;2023-04-24T15:17:56;11;9;
56069;PMS5003;41944;52.078;-0.058;2023-04-24T15:20:28;8;8;
56069;PMS5003;41944;52.078;-0.058;2023-04-24T15:22:55;7;6;
56069;PMS5003;41944;52.078;-0.058;2023-04-24T15:25:22;10;7;
56069;PMS5003;41944;52.078;-0.058;2023-04-24T15:27:49;6;6;
56069;PMS5003;41944;52.078;-0.058;2023-04-24T15:30:16;10;7;
56069;PMS5003;41944;52.078;-0.058;2023-04-24T15:32:43;8;5;
56069;PMS5003;41944;52.078;-0.058;2023-04-24T15:35:10;7;6;
56069;PMS5003;41944;52.078;-0.058;2023-04-24T15:37:37;6;6;
56069;PMS5003;41944;52.078;-0.058;2023-04-24T15:40:05;9;6;
56069;PMS5003;41944;52.078;-0.058;2023-04-24T15:42:32;9;6;
56069;PMS5003;41944;52.078;-0.058;2023-04-24T15:44:59;6;6;
56069;PMS5003;41944;52.078;-0.058;2023-04-24T15:47:26;13;8;
56069;PMS5003;41944;52.078;-0.058;2023-04-24T15:49:53;10;7;
56069;PMS5003;41944;52.078;-0.058;2023-04-24T15:52:20;9;8;
56069;PMS5003;41944;52.078;-0.058;2023-04-24T15:54:47;12;10;
56069;PMS5003;41944;52.078;-0.058;2023-04-24T15:57:14;10;9;
56069;PMS5003;41944;52.078;-0.058;2023-04-24T15:59:41;11;11;
56069;PMS5003;41944;52.078;-0.058;2023-04-24T16:02:08;11;10;
56069;PMS5003;41944;52.078;-0.058;2023-04-24T16:04:38;14;12;
56069;PMS5003;41944;52.078;-0.058;2023-04-24T16:07:05;15;13;
56069;PMS5003;41944;52.078;-0.058;2023-04-24T16:09:32;14;12;
56069;PMS5003;41944;52.078;-0.058;2023-04-24T16:11:59;12;11;
56069;PMS5003;41944;52.078;-0.058;2023-04-24T16:14:26;11;11;
56069;PMS5003;41944;52.078;-0.058;2023-04-24T16:16:53;14;13;
56069;PMS5003;41944;52.078;-0.058;2023-04-24T16:19:19;13;11;
56069;PMS5003;41944;52.078;-0.058;2023-04-24T16:21:46;11;10;
56069;PMS5003;41944;52.078;-0.058;2023-04-24T16:24:13;14;12;
56069;PMS5003;41944;52.078;-0.058;2023-04-24T16:26:40;18;12;
56069;PMS5003;41944;52.078;-0.058;2023-04-24T16:29:07;10;10;
56069;PMS5003;41944;52.078;-0.058;2023-04-24T16:31:35;12;9;